Time;durP1;ratioP1;P1;durP2;ratioP2;P2;SDS_P1;SDS_P2;PMS_P1;PMS_P2;Temp;Humidity;BMP_temperature;BMP_pressure;BME280_temperature;BME280_humidity;BME280_pressure;Samples;Min_cycle;Max_cycle;Signal;HPM_P1;HPM_P2
2024/02/20 00:02:02;;;;;;;7.63;2.40;;;9.10;99.90;;;;;;5018060;28;20911;-71
2024/02/20 00:04:29;;;;;;;10.07;2.00;;;9.00;99.90;;;;;;5015588;28;20456;-71
2024/02/20 00:06:56;;;;;;;29.60;4.20;;;9.00;99.90;;;;;;5014844;28;21030;-71
2024/02/20 00:09:22;;;;;;;2.73;2.00;;;8.80;99.90;;;;;;5014047;28;20453;-71
2024/02/20 00:11:49;;;;;;;6.33;2.40;;;8.80;99.90;;;;;;5015516;28;20452;-71
2024/02/20 00:14:17;;;;;;;3.03;1.70;;;8.80;99.90;;;;;;5010865;28;20472;-70
2024/02/20 00:16:44;;;;;;;16.20;2.30;;;8.70;99.90;;;;;;5016892;28;20510;-70
2024/02/20 00:19:11;;;;;;;18.23;2.30;;;8.80;99.90;;;;;;5013670;28;20465;-70
2024/02/20 00:21:40;;;;;;;9.60;2.23;;;8.80;99.90;;;;;;5014880;28;20472;-70
2024/02/20 00:24:06;;;;;;;5.47;3.33;;;8.70;99.90;;;;;;5013488;28;20891;-70
2024/02/20 00:26:33;;;;;;;7.97;2.83;;;8.70;99.90;;;;;;5019393;28;20514;-70
2024/02/20 00:29:00;;;;;;;12.73;3.17;;;8.60;99.90;;;;;;5015336;28;20467;-70
2024/02/20 00:31:32;;;;;;;9.10;2.17;;;8.60;99.90;;;;;;5014626;28;20463;-70
2024/02/20 00:33:59;;;;;;;4.60;2.13;;;8.50;99.90;;;;;;5016738;28;20464;-70
2024/02/20 00:36:28;;;;;;;5.03;2.23;;;8.50;99.90;;;;;;5009998;28;20479;-70
2024/02/20 00:38:55;;;;;;;3.57;2.43;;;8.40;99.90;;;;;;5013731;28;20947;-70
2024/02/20 00:41:22;;;;;;;7.27;2.47;;;8.40;99.90;;;;;;5011029;28;20483;-70
2024/02/20 00:43:49;;;;;;;5.27;2.57;;;8.40;99.90;;;;;;5016998;28;20832;-70
2024/02/20 00:46:19;;;;;;;4.87;2.20;;;8.30;99.90;;;;;;5017853;28;20857;-70
2024/02/20 00:48:47;;;;;;;8.10;2.90;;;8.30;99.90;;;;;;5011444;28;20471;-71
2024/02/20 00:51:16;;;;;;;3.43;1.70;;;8.20;99.90;;;;;;5012367;28;20468;-70
2024/02/20 00:53:43;;;;;;;12.17;2.97;;;8.20;99.90;;;;;;5013173;28;20549;-71
2024/02/20 00:56:11;;;;;;;4.17;1.67;;;8.20;99.90;;;;;;5014517;28;20457;-70
2024/02/20 00:58:38;;;;;;;14.87;2.97;;;8.10;99.90;;;;;;5014403;28;20493;-70
2024/02/20 01:01:09;;;;;;;10.23;2.70;;;8.10;99.90;;;;;;5009644;28;20476;-71
2024/02/20 01:03:37;;;;;;;2.97;1.80;;;8.20;99.90;;;;;;5016237;28;21037;-70
2024/02/20 01:06:06;;;;;;;10.90;2.27;;;8.10;99.90;;;;;;5010839;28;20472;-70
2024/02/20 01:08:33;;;;;;;5.20;2.60;;;8.20;99.90;;;;;;5004135;28;20601;-70
2024/02/20 01:10:59;;;;;;;17.33;3.10;;;8.20;99.90;;;;;;5013676;28;20479;-70
2024/02/20 01:13:26;;;;;;;4.40;1.77;;;8.20;99.90;;;;;;5195347;22;20487;-67
2024/02/20 01:15:53;;;;;;;17.83;4.50;;;8.10;99.90;;;;;;4983743;28;20462;-67
2024/02/20 01:18:19;;;;;;;14.73;3.50;;;8.00;99.90;;;;;;4986712;28;20485;-66
2024/02/20 01:20:46;;;;;;;11.57;2.40;;;8.00;99.90;;;;;;4996756;28;20507;-67
2024/02/20 01:23:14;;;;;;;4.83;1.80;;;8.00;99.90;;;;;;4993621;28;20444;-66
2024/02/20 01:25:42;;;;;;;6.60;3.13;;;7.90;99.90;;;;;;5003542;28;20465;-66
2024/02/20 01:28:09;;;;;;;16.63;2.20;;;7.90;99.90;;;;;;4998626;28;20456;-67
2024/02/20 01:30:36;;;;;;;17.00;1.77;;;8.00;99.90;;;;;;5001547;28;20446;-67
2024/02/20 01:33:07;;;;;;;7.93;2.20;;;8.10;99.90;;;;;;5003286;28;20870;-67
2024/02/20 01:35:34;;;;;;;3.87;1.50;;;8.20;99.90;;;;;;4985242;28;20590;-67
2024/02/20 01:38:01;;;;;;;28.83;4.50;;;8.20;99.90;;;;;;4987489;28;20481;-67
2024/02/20 01:40:29;;;;;;;4.80;1.80;;;8.20;99.90;;;;;;4985158;28;20477;-67
2024/02/20 01:42:56;;;;;;;10.73;2.33;;;8.20;99.90;;;;;;4994051;28;20472;-67
2024/02/20 01:45:23;;;;;;;6.33;1.50;;;8.20;99.90;;;;;;4995828;28;20826;-67
2024/02/20 01:47:50;;;;;;;16.50;2.93;;;8.10;99.90;;;;;;4990899;28;21068;-67
2024/02/20 01:50:17;;;;;;;12.23;2.80;;;8.00;99.90;;;;;;4969453;28;20785;-67
2024/02/20 01:52:44;;;;;;;11.13;2.67;;;8.00;99.90;;;;;;4983359;28;21014;-67
2024/02/20 01:55:12;;;;;;;2.83;2.40;;;8.00;99.90;;;;;;4991177;28;20471;-67
2024/02/20 01:57:41;;;;;;;11.30;2.67;;;8.00;99.90;;;;;;4992362;28;20532;-67
2024/02/20 02:00:08;;;;;;;4.37;2.10;;;8.00;99.90;;;;;;4983601;28;20457;-67
2024/02/20 02:02:35;;;;;;;15.17;3.50;;;7.90;99.90;;;;;;4990129;28;21609;-67
2024/02/20 02:05:03;;;;;;;4.87;2.40;;;7.90;99.90;;;;;;4989678;28;21034;-67
2024/02/20 02:07:29;;;;;;;20.30;3.00;;;7.90;99.90;;;;;;4965045;28;20864;-67
2024/02/20 02:09:56;;;;;;;6.10;2.80;;;8.00;99.90;;;;;;4988601;28;21112;-68
2024/02/20 02:12:23;;;;;;;8.33;2.37;;;8.00;99.90;;;;;;4990454;28;21047;-67
2024/02/20 02:14:51;;;;;;;22.57;3.90;;;8.00;99.90;;;;;;4994699;28;20469;-67
2024/02/20 02:17:18;;;;;;;9.70;2.83;;;7.90;99.90;;;;;;4994227;28;20522;-67
2024/02/20 02:19:45;;;;;;;10.23;3.93;;;7.90;99.90;;;;;;5005690;28;20461;-67
2024/02/20 02:22:11;;;;;;;5.93;2.87;;;7.90;99.90;;;;;;4990183;28;20452;-67
2024/02/20 02:24:38;;;;;;;14.07;2.20;;;7.90;99.90;;;;;;4994708;28;20888;-67
2024/02/20 02:27:07;;;;;;;8.47;2.40;;;8.00;99.90;;;;;;4994258;28;20505;-67
2024/02/20 02:29:33;;;;;;;8.70;2.90;;;8.10;99.90;;;;;;4995938;28;21222;-67
2024/02/20 02:32:01;;;;;;;15.13;3.20;;;8.10;99.90;;;;;;5000666;28;20844;-68
2024/02/20 02:34:29;;;;;;;3.73;2.97;;;8.10;99.90;;;;;;4994512;28;20462;-68
2024/02/20 02:36:56;;;;;;;5.83;3.00;;;8.20;99.90;;;;;;4996687;28;20554;-68
2024/02/20 02:39:23;;;;;;;15.70;4.00;;;8.20;99.90;;;;;;4990807;28;20493;-67
2024/02/20 02:41:50;;;;;;;7.83;2.83;;;8.20;99.90;;;;;;4993519;28;20527;-67
2024/02/20 02:44:19;;;;;;;11.33;2.60;;;8.30;99.90;;;;;;4992307;28;20840;-67
2024/02/20 02:46:45;;;;;;;6.73;3.40;;;8.30;99.90;;;;;;4998630;28;20475;-68
2024/02/20 02:49:12;;;;;;;7.63;3.07;;;8.20;99.90;;;;;;4987223;28;20468;-67
2024/02/20 02:51:39;;;;;;;30.03;2.67;;;8.30;99.90;;;;;;4998054;28;20461;-68
2024/02/20 02:54:06;;;;;;;8.17;2.50;;;8.40;99.90;;;;;;5001040;28;20472;-67
2024/02/20 02:56:33;;;;;;;14.97;2.43;;;8.40;99.90;;;;;;4996991;28;20466;-67
2024/02/20 02:59:00;;;;;;;17.03;4.40;;;8.30;99.90;;;;;;4999712;28;20484;-67
2024/02/20 03:01:28;;;;;;;9.63;3.53;;;8.30;99.90;;;;;;4997982;28;20464;-67
2024/02/20 03:03:55;;;;;;;5.23;2.47;;;8.30;99.90;;;;;;4993291;28;20830;-67
2024/02/20 03:06:22;;;;;;;15.13;4.00;;;8.30;99.90;;;;;;4990479;28;20460;-67
2024/02/20 03:08:49;;;;;;;6.37;4.10;;;8.40;99.90;;;;;;4994570;28;20482;-66
2024/02/20 03:11:16;;;;;;;14.60;3.50;;;8.20;99.90;;;;;;5000268;28;20453;-67
2024/02/20 03:13:43;;;;;;;7.87;1.90;;;8.20;99.90;;;;;;4994785;28;20552;-66
2024/02/20 03:16:10;;;;;;;4.40;2.50;;;8.30;99.90;;;;;;4992735;28;20503;-67
2024/02/20 03:18:42;;;;;;;6.10;2.43;;;8.20;99.90;;;;;;4995081;28;20515;-66
2024/02/20 03:21:09;;;;;;;7.40;3.30;;;8.30;99.90;;;;;;4992279;28;20471;-66
2024/02/20 03:23:36;;;;;;;11.30;4.30;;;8.30;99.90;;;;;;4991214;28;20468;-66
2024/02/20 03:26:03;;;;;;;4.27;2.40;;;8.30;99.90;;;;;;4992793;28;21988;-67
2024/02/20 03:28:30;;;;;;;23.47;4.80;;;8.40;99.90;;;;;;4996083;28;20484;-66
2024/02/20 03:30:57;;;;;;;7.00;2.27;;;8.30;99.90;;;;;;4997568;28;20464;-66
2024/02/20 03:33:25;;;;;;;20.93;4.23;;;8.20;99.90;;;;;;4990793;28;20991;-66
2024/02/20 03:35:53;;;;;;;19.43;4.13;;;8.30;99.90;;;;;;4989151;28;20465;-67
2024/02/20 03:38:21;;;;;;;11.53;3.67;;;8.30;99.90;;;;;;4994172;28;20485;-66
2024/02/20 03:40:48;;;;;;;5.83;3.10;;;8.30;99.90;;;;;;4995107;28;20487;-66
2024/02/20 03:43:15;;;;;;;10.73;3.73;;;8.20;99.90;;;;;;4996203;28;20465;-66
2024/02/20 03:45:41;;;;;;;13.40;4.37;;;8.20;99.90;;;;;;4989463;28;20468;-67
2024/02/20 03:48:08;;;;;;;14.73;4.30;;;8.00;99.90;;;;;;4996350;28;20482;-67
2024/02/20 03:50:35;;;;;;;19.43;3.20;;;7.90;99.90;;;;;;4990696;28;20461;-67
2024/02/20 03:53:05;;;;;;;7.53;4.00;;;7.90;99.90;;;;;;5001983;28;20464;-67
2024/02/20 03:55:31;;;;;;;16.73;3.90;;;8.00;99.90;;;;;;4995363;28;20443;-67
2024/02/20 03:58:00;;;;;;;11.03;5.60;;;8.00;99.90;;;;;;5001590;28;20484;-66
2024/02/20 04:00:27;;;;;;;6.97;4.03;;;7.90;99.90;;;;;;4994147;28;20466;-66
2024/02/20 04:02:56;;;;;;;15.83;5.63;;;7.90;99.90;;;;;;4993017;28;20463;-66
2024/02/20 04:05:23;;;;;;;13.60;3.73;;;7.80;99.90;;;;;;4990242;28;20539;-68
2024/02/20 04:07:50;;;;;;;6.60;4.07;;;7.90;99.90;;;;;;4989459;28;20504;-67
2024/02/20 04:10:18;;;;;;;3.80;3.40;;;7.80;99.90;;;;;;4995042;28;20472;-68
2024/02/20 04:12:45;;;;;;;12.20;2.90;;;7.90;99.90;;;;;;4986388;28;20443;-67
2024/02/20 04:15:13;;;;;;;11.73;4.20;;;7.90;99.90;;;;;;4989903;28;20475;-68
2024/02/20 04:17:40;;;;;;;6.93;3.80;;;7.90;99.90;;;;;;4987643;28;20571;-68
2024/02/20 04:20:09;;;;;;;6.53;3.80;;;7.90;99.90;;;;;;4989517;28;20457;-68
2024/02/20 04:22:37;;;;;;;8.60;3.40;;;8.00;99.90;;;;;;4993346;28;20461;-68
2024/02/20 04:25:05;;;;;;;12.50;4.50;;;8.00;99.90;;;;;;4987762;28;20558;-66
2024/02/20 04:27:34;;;;;;;19.37;4.97;;;8.10;99.90;;;;;;4990268;28;20992;-66
2024/02/20 04:30:01;;;;;;;13.83;5.90;;;8.10;99.90;;;;;;4989142;28;20461;-66
2024/02/20 04:32:28;;;;;;;13.20;5.83;;;8.10;99.90;;;;;;4991970;28;20477;-66
2024/02/20 04:34:55;;;;;;;11.10;4.23;;;8.10;99.90;;;;;;4993085;28;20461;-66
2024/02/20 04:37:22;;;;;;;5.43;3.03;;;8.10;99.90;;;;;;4995157;28;20540;-68
2024/02/20 04:39:48;;;;;;;13.70;3.97;;;8.00;99.90;;;;;;4996014;28;20480;-66
2024/02/20 04:42:16;;;;;;;34.93;5.43;;;8.10;99.90;;;;;;4993437;28;20480;-66
2024/02/20 04:44:44;;;;;;;6.50;4.30;;;8.10;99.90;;;;;;4998137;28;20461;-67
2024/02/20 04:47:10;;;;;;;9.53;4.07;;;8.10;99.90;;;;;;4979806;28;20491;-66
2024/02/20 04:49:37;;;;;;;13.97;4.17;;;8.00;99.90;;;;;;4999788;28;20456;-67
2024/02/20 04:52:04;;;;;;;31.07;4.00;;;8.00;99.90;;;;;;5003137;28;20476;-67
2024/02/20 04:54:31;;;;;;;18.80;4.80;;;7.90;99.90;;;;;;5003638;28;21198;-67
2024/02/20 04:56:58;;;;;;;10.37;4.37;;;8.00;99.90;;;;;;5001668;28;20477;-67
2024/02/20 04:59:24;;;;;;;6.20;3.83;;;7.90;99.90;;;;;;4993269;28;20485;-66
2024/02/20 05:01:52;;;;;;;9.97;3.17;;;7.90;99.90;;;;;;4992822;28;20500;-66
2024/02/20 05:04:20;;;;;;;11.37;4.30;;;7.90;99.90;;;;;;4993327;28;20440;-66
2024/02/20 05:06:47;;;;;;;10.93;3.60;;;7.80;99.90;;;;;;5002335;28;20511;-67
2024/02/20 05:09:14;;;;;;;14.43;5.23;;;7.80;99.90;;;;;;4994283;28;20477;-67
2024/02/20 05:11:41;;;;;;;13.70;5.30;;;7.80;99.90;;;;;;5001878;28;20446;-67
2024/02/20 05:14:07;;;;;;;8.07;3.77;;;7.70;99.90;;;;;;5002623;28;20564;-68
2024/02/20 05:16:34;;;;;;;14.07;3.40;;;7.70;99.90;;;;;;4996009;28;20475;-67
2024/02/20 05:19:02;;;;;;;5.00;3.30;;;7.70;99.90;;;;;;5000443;28;20495;-67
2024/02/20 05:21:29;;;;;;;9.70;5.30;;;7.80;99.90;;;;;;4997143;28;20476;-67
2024/02/20 05:23:56;;;;;;;5.00;2.87;;;7.70;99.90;;;;;;4995815;28;20461;-67
2024/02/20 05:26:22;;;;;;;7.67;3.97;;;7.70;99.90;;;;;;4997613;28;20461;-67
2024/02/20 05:28:49;;;;;;;6.93;5.00;;;7.70;99.90;;;;;;5001671;28;20495;-67
2024/02/20 05:31:29;;;;;;;25.57;5.60;;;7.60;99.90;;;;;;5000076;28;20435;-67
2024/02/20 05:33:57;;;;;;;9.73;6.00;;;7.60;99.90;;;;;;4999466;28;21184;-66
2024/02/20 05:36:29;;;;;;;15.23;5.83;;;7.70;99.90;;;;;;4995066;28;20967;-66
2024/02/20 05:38:59;;;;;;;17.83;7.50;;;7.70;99.90;;;;;;5006802;28;20939;-66
2024/02/20 05:41:26;;;;;;;19.90;5.57;;;7.80;99.90;;;;;;5002087;28;20552;-66
2024/02/20 05:43:57;;;;;;;19.40;6.23;;;7.80;99.90;;;;;;5000758;28;20559;-66
2024/02/20 05:46:25;;;;;;;13.43;8.80;;;7.80;99.90;;;;;;4999854;28;20438;-67
2024/02/20 05:48:52;;;;;;;11.57;5.10;;;7.70;99.90;;;;;;4989912;28;20457;-66
2024/02/20 05:51:19;;;;;;;11.63;7.60;;;7.80;99.90;;;;;;4996979;28;20826;-67
2024/02/20 05:53:47;;;;;;;15.00;6.97;;;7.80;99.90;;;;;;4994187;28;21128;-66
2024/02/20 05:56:13;;;;;;;22.50;5.23;;;7.70;99.90;;;;;;5004664;28;20497;-66
2024/02/20 05:58:41;;;;;;;15.33;7.00;;;7.70;99.90;;;;;;5003253;28;20861;-67
2024/02/20 06:01:08;;;;;;;17.67;6.10;;;7.70;99.90;;;;;;5003265;28;20443;-67
2024/02/20 06:03:35;;;;;;;13.30;6.83;;;7.70;99.90;;;;;;5002675;28;20541;-67
2024/02/20 06:06:02;;;;;;;16.37;7.50;;;7.70;99.90;;;;;;5003979;28;21205;-67
2024/02/20 06:08:29;;;;;;;14.93;5.53;;;7.70;99.90;;;;;;4998558;28;20500;-67
2024/02/20 06:10:57;;;;;;;17.73;9.03;;;7.70;99.90;;;;;;5003023;28;20484;-67
2024/02/20 06:13:24;;;;;;;22.63;10.10;;;7.60;99.90;;;;;;5004326;28;20439;-67
2024/02/20 06:15:51;;;;;;;32.53;6.93;;;7.70;99.90;;;;;;5003888;28;20460;-67
2024/02/20 06:18:17;;;;;;;36.93;11.40;;;7.70;99.90;;;;;;5005082;28;20489;-67
2024/02/20 06:20:45;;;;;;;22.43;8.13;;;7.70;99.90;;;;;;5001690;28;20457;-67
2024/02/20 06:23:12;;;;;;;24.00;10.23;;;7.70;99.90;;;;;;5001967;28;20470;-67
2024/02/20 06:25:41;;;;;;;22.33;10.80;;;7.70;99.90;;;;;;5006024;28;20568;-67
2024/02/20 06:28:09;;;;;;;17.77;9.43;;;7.70;99.90;;;;;;5007832;28;20485;-67
2024/02/20 06:30:36;;;;;;;36.10;11.20;;;7.60;99.90;;;;;;5001896;28;21003;-67
2024/02/20 06:33:03;;;;;;;25.97;11.00;;;7.70;99.90;;;;;;4999211;28;20986;-69
2024/02/20 06:35:30;;;;;;;30.10;10.27;;;7.70;99.90;;;;;;5000113;28;21207;-67
2024/02/20 06:37:57;;;;;;;11.63;4.23;;;7.80;99.90;;;;;;4998930;28;20507;-67
2024/02/20 06:40:24;;;;;;;15.80;7.07;;;7.60;99.90;;;;;;5002963;28;20485;-68
2024/02/20 06:42:50;;;;;;;23.07;7.67;;;7.60;99.90;;;;;;5003043;28;21297;-67
2024/02/20 06:45:18;;;;;;;28.10;10.80;;;7.70;99.90;;;;;;5004819;28;20563;-67
2024/02/20 06:47:48;;;;;;;34.30;13.93;;;7.80;99.90;;;;;;4997998;28;20486;-67
2024/02/20 06:50:14;;;;;;;11.83;7.80;;;7.70;99.90;;;;;;5004328;28;20468;-67
2024/02/20 06:52:43;;;;;;;15.47;8.40;;;7.70;99.90;;;;;;5000337;28;20446;-67
2024/02/20 06:55:10;;;;;;;17.73;6.23;;;7.70;99.90;;;;;;5002550;28;20461;-67
2024/02/20 06:57:39;;;;;;;22.70;6.03;;;7.70;99.90;;;;;;5003448;28;20601;-66
2024/02/20 07:00:11;;;;;;;18.77;7.30;;;7.80;99.90;;;;;;5001562;28;20466;-67
2024/02/20 07:02:40;;;;;;;38.57;10.53;;;7.90;99.90;;;;;;5001167;28;20850;-67
2024/02/20 07:05:08;;;;;;;10.27;6.33;;;7.90;99.90;;;;;;5000466;28;20464;-68
2024/02/20 07:07:35;;;;;;;10.43;5.27;;;7.90;99.90;;;;;;5003354;28;20811;-68
2024/02/20 07:10:03;;;;;;;12.93;6.30;;;7.90;99.90;;;;;;4995146;28;20586;-67
2024/02/20 07:12:30;;;;;;;20.60;6.60;;;7.90;99.90;;;;;;4998185;28;20470;-67
2024/02/20 07:14:57;;;;;;;18.73;7.20;;;7.90;99.90;;;;;;5002593;28;20488;-69
2024/02/20 07:17:24;;;;;;;16.30;5.93;;;8.00;99.90;;;;;;4997827;28;20491;-69
2024/02/20 07:19:52;;;;;;;10.80;4.63;;;8.00;99.90;;;;;;5002162;28;20470;-69
2024/02/20 07:22:19;;;;;;;11.87;5.67;;;8.10;99.90;;;;;;5005214;28;20475;-68
2024/02/20 07:24:45;;;;;;;7.90;4.10;;;8.00;99.90;;;;;;5000979;28;20542;-69
2024/02/20 07:27:12;;;;;;;60.53;7.47;;;8.00;99.90;;;;;;5005014;28;20846;-69
2024/02/20 07:29:41;;;;;;;8.23;4.10;;;7.90;99.90;;;;;;5001068;28;20481;-69
2024/02/20 07:32:09;;;;;;;29.87;6.90;;;8.00;99.90;;;;;;5005631;28;20469;-69
2024/02/20 07:34:36;;;;;;;6.50;4.03;;;8.00;99.90;;;;;;4999247;28;20891;-69
2024/02/20 07:37:04;;;;;;;19.33;5.23;;;8.10;99.90;;;;;;5004017;28;20974;-69
2024/02/20 07:39:31;;;;;;;23.37;5.43;;;8.10;99.90;;;;;;5002248;28;20484;-69
2024/02/20 07:41:58;;;;;;;11.50;5.87;;;8.00;99.90;;;;;;5000265;28;20472;-69
2024/02/20 07:44:25;;;;;;;9.50;5.33;;;8.10;99.90;;;;;;4991069;28;20993;-69
2024/02/20 07:46:52;;;;;;;22.30;5.97;;;8.20;99.90;;;;;;4997789;28;20470;-69
2024/02/20 07:49:19;;;;;;;7.47;2.83;;;8.30;99.90;;;;;;5002779;28;20820;-68
2024/02/20 07:51:47;;;;;;;25.47;3.60;;;8.30;99.90;;;;;;5003328;28;20457;-68
2024/02/20 07:54:16;;;;;;;6.97;3.30;;;8.20;99.90;;;;;;5004499;28;20572;-68
2024/02/20 07:56:43;;;;;;;15.27;4.17;;;8.10;99.90;;;;;;5007776;28;20443;-68
2024/02/20 07:59:10;;;;;;;14.60;4.57;;;8.20;99.90;;;;;;5005381;28;20533;-68
2024/02/20 08:01:37;;;;;;;23.60;5.20;;;8.20;99.90;;;;;;4999409;28;20461;-68
2024/02/20 08:04:05;;;;;;;16.27;6.90;;;8.40;99.90;;;;;;5009095;28;20465;-68
2024/02/20 08:06:32;;;;;;;11.03;4.07;;;8.40;99.90;;;;;;4999309;28;20868;-68
2024/02/20 08:08:59;;;;;;;17.87;5.20;;;8.40;99.90;;;;;;5007402;28;20524;-68
2024/02/20 08:11:27;;;;;;;5.17;3.80;;;8.50;99.90;;;;;;5003589;28;20457;-70
2024/02/20 08:13:54;;;;;;;33.30;5.40;;;8.60;99.90;;;;;;5003722;28;20632;-68
2024/02/20 08:16:21;;;;;;;11.43;3.87;;;8.60;99.90;;;;;;5004743;28;21089;-68
2024/02/20 08:18:48;;;;;;;10.60;4.40;;;8.70;99.90;;;;;;4994241;28;20445;-69
2024/02/20 08:21:14;;;;;;;17.43;4.83;;;8.80;99.90;;;;;;5002590;28;20484;-69
2024/02/20 08:23:42;;;;;;;15.10;5.47;;;8.90;99.90;;;;;;5003431;28;20461;-68
2024/02/20 08:26:09;;;;;;;3.23;2.40;;;9.10;99.90;;;;;;5009555;28;20458;-69
2024/02/20 08:28:38;;;;;;;6.10;3.90;;;9.00;99.90;;;;;;4999759;28;20492;-68
2024/02/20 08:31:04;;;;;;;8.30;4.73;;;8.90;99.90;;;;;;5000682;28;20454;-69
2024/02/20 08:33:31;;;;;;;5.60;5.00;;;9.00;99.90;;;;;;4997083;28;20516;-68
2024/02/20 08:35:58;;;;;;;14.30;4.67;;;9.00;99.90;;;;;;5003663;28;20461;-69
2024/02/20 08:38:25;;;;;;;13.33;4.77;;;9.00;99.90;;;;;;5002539;28;20481;-69
2024/02/20 08:40:51;;;;;;;10.17;4.63;;;9.00;99.90;;;;;;5003803;28;20482;-68
2024/02/20 08:43:18;;;;;;;14.43;9.37;;;8.90;99.90;;;;;;5002504;28;20469;-71
2024/02/20 08:45:46;;;;;;;3.83;2.60;;;9.00;99.90;;;;;;5000798;28;20466;-68
2024/02/20 08:48:13;;;;;;;14.03;6.80;;;9.00;99.90;;;;;;4997439;28;20479;-69
2024/02/20 08:50:40;;;;;;;17.50;6.20;;;9.00;99.90;;;;;;5000169;28;20464;-68
2024/02/20 08:53:10;;;;;;;22.23;6.17;;;9.20;99.90;;;;;;4999898;28;21080;-69
2024/02/20 08:55:37;;;;;;;28.93;5.97;;;9.20;99.90;;;;;;4999502;28;20465;-68
2024/02/20 08:58:04;;;;;;;8.30;5.17;;;9.10;99.90;;;;;;4998783;28;20510;-69
2024/02/20 09:00:31;;;;;;;10.47;7.30;;;9.00;99.90;;;;;;5002294;28;20561;-68
2024/02/20 09:02:59;;;;;;;5.40;2.47;;;9.00;99.90;;;;;;5004151;28;20457;-68
2024/02/20 09:05:26;;;;;;;10.37;4.87;;;9.10;99.90;;;;;;5003275;28;20463;-69
2024/02/20 09:07:52;;;;;;;5.80;3.77;;;9.20;99.90;;;;;;4997399;28;20532;-68
2024/02/20 09:10:19;;;;;;;9.00;6.30;;;9.30;99.90;;;;;;4993932;28;20449;-68
2024/02/20 09:12:46;;;;;;;14.63;7.00;;;9.30;99.90;;;;;;4997156;28;20503;-68
2024/02/20 09:15:13;;;;;;;4.27;3.80;;;9.30;99.90;;;;;;4994278;28;20488;-68
2024/02/20 09:17:39;;;;;;;23.20;9.80;;;9.20;99.90;;;;;;4998154;28;20591;-68
2024/02/20 09:20:10;;;;;;;14.97;6.63;;;9.20;99.90;;;;;;5000606;28;20582;-69
2024/02/20 09:22:38;;;;;;;25.63;7.00;;;9.20;99.90;;;;;;5007639;28;20551;-69
2024/02/20 09:25:06;;;;;;;8.00;6.90;;;9.20;99.90;;;;;;5000353;28;20465;-68
2024/02/20 09:27:33;;;;;;;9.93;6.40;;;9.50;99.90;;;;;;4997771;28;20481;-68
2024/02/20 09:30:00;;;;;;;17.83;7.70;;;9.50;99.90;;;;;;5002604;28;21442;-69
2024/02/20 09:32:26;;;;;;;15.20;5.10;;;9.60;99.90;;;;;;5002968;28;20456;-69
2024/02/20 09:34:54;;;;;;;14.17;7.90;;;9.60;99.90;;;;;;5001545;28;20842;-69
2024/02/20 09:37:22;;;;;;;14.37;8.30;;;9.70;99.90;;;;;;4997355;28;20571;-70
2024/02/20 09:39:48;;;;;;;15.47;7.83;;;9.80;99.90;;;;;;5002517;28;20988;-68
2024/02/20 09:42:24;;;;;;;35.43;8.10;;;10.00;99.90;;;;;;5002445;28;20465;-68
2024/02/20 09:44:54;;;;;;;12.70;7.60;;;9.90;99.90;;;;;;5002806;28;20460;-68
2024/02/20 09:47:21;;;;;;;16.10;8.67;;;9.80;99.90;;;;;;5004970;28;20489;-69
2024/02/20 09:49:49;;;;;;;12.13;6.20;;;10.00;99.90;;;;;;5005740;28;20469;-68
2024/02/20 09:52:18;;;;;;;19.17;8.30;;;10.20;99.90;;;;;;5002896;28;20512;-69
2024/02/20 09:54:47;;;;;;;13.90;8.40;;;10.20;99.90;;;;;;5004807;28;20488;-69
2024/02/20 09:57:15;;;;;;;10.07;7.73;;;10.10;99.90;;;;;;5007481;28;20492;-69
2024/02/20 09:59:41;;;;;;;29.33;10.40;;;10.10;99.90;;;;;;5000384;28;20837;-69
2024/02/20 10:02:15;;;;;;;21.40;8.77;;;10.20;99.90;;;;;;4995171;28;20527;-69
2024/02/20 10:04:44;;;;;;;12.60;6.63;;;10.30;99.90;;;;;;5002238;28;20468;-69
2024/02/20 10:07:13;;;;;;;16.63;9.30;;;10.20;99.90;;;;;;4997387;28;20484;-67
2024/02/20 10:09:40;;;;;;;10.80;7.23;;;10.00;99.90;;;;;;5001539;28;20577;-68
2024/02/20 10:12:18;;;;;;;14.40;7.60;;;9.90;99.90;;;;;;5002139;28;20821;-68
2024/02/20 10:14:45;;;;;;;7.77;5.33;;;9.90;99.90;;;;;;5003518;28;20475;-68
2024/02/20 10:17:15;;;;;;;13.60;7.60;;;9.90;99.90;;;;;;5002380;28;20484;-68
2024/02/20 10:19:42;;;;;;;14.83;7.50;;;9.90;99.90;;;;;;5001679;28;20472;-68
2024/02/20 10:22:09;;;;;;;14.17;6.90;;;10.10;99.90;;;;;;5004752;28;20489;-67
2024/02/20 10:24:36;;;;;;;8.40;5.27;;;10.20;99.90;;;;;;5000767;28;20465;-69
2024/02/20 10:27:03;;;;;;;14.23;9.43;;;10.30;99.90;;;;;;5004568;28;20480;-68
2024/02/20 10:29:31;;;;;;;18.30;7.20;;;10.40;99.90;;;;;;5006747;28;20472;-68
2024/02/20 10:31:58;;;;;;;17.93;9.47;;;10.60;99.90;;;;;;5001353;28;20469;-68
2024/02/20 10:34:25;;;;;;;14.67;7.20;;;10.70;99.90;;;;;;5008242;28;20512;-68
2024/02/20 10:36:51;;;;;;;28.33;10.23;;;10.80;99.90;;;;;;5005406;28;20481;-69
2024/02/20 10:39:21;;;;;;;15.63;9.90;;;10.80;99.90;;;;;;4998907;28;20481;-69
2024/02/20 10:41:48;;;;;;;19.83;9.53;;;10.60;99.90;;;;;;5001296;28;20500;-69
2024/02/20 10:44:15;;;;;;;20.90;11.50;;;10.50;99.90;;;;;;5001180;28;20464;-68
2024/02/20 10:46:43;;;;;;;19.30;9.63;;;10.60;99.90;;;;;;4997545;28;20480;-69
2024/02/20 10:49:19;;;;;;;21.47;10.87;;;10.60;99.90;;;;;;5002713;28;20457;-68
2024/02/20 10:51:47;;;;;;;10.07;7.63;;;10.50;99.90;;;;;;5000355;28;20513;-68
2024/02/20 10:54:15;;;;;;;20.90;10.07;;;10.50;99.90;;;;;;5006551;28;20816;-68
2024/02/20 10:56:43;;;;;;;16.63;9.40;;;10.50;99.90;;;;;;5009687;28;20457;-68
2024/02/20 10:59:11;;;;;;;25.47;12.20;;;10.50;99.90;;;;;;5004644;28;20461;-68
2024/02/20 11:01:39;;;;;;;4.50;4.17;;;10.50;99.90;;;;;;5000201;28;20644;-68
2024/02/20 11:04:08;;;;;;;29.93;4.90;;;10.40;99.90;;;;;;5002226;28;20491;-68
2024/02/20 11:06:39;;;;;;;25.30;9.40;;;10.30;99.90;;;;;;5008388;28;20834;-68
2024/02/20 11:09:08;;;;;;;12.17;8.13;;;10.40;99.90;;;;;;4999241;28;20586;-69
2024/02/20 11:11:35;;;;;;;11.53;6.90;;;10.40;99.90;;;;;;4996733;28;20464;-70
2024/02/20 11:14:02;;;;;;;18.57;8.73;;;10.60;99.90;;;;;;5002957;28;20479;-68
2024/02/20 11:16:34;;;;;;;9.67;4.47;;;10.60;99.90;;;;;;4999543;28;20449;-68
2024/02/20 11:19:00;;;;;;;10.60;5.80;;;10.70;99.90;;;;;;5006760;28;20472;-68
2024/02/20 11:21:30;;;;;;;16.27;6.27;;;10.70;99.90;;;;;;5005276;28;20484;-68
2024/02/20 11:23:57;;;;;;;10.87;6.23;;;10.60;99.90;;;;;;5004334;28;20488;-69
2024/02/20 11:26:28;;;;;;;8.37;5.00;;;10.60;99.90;;;;;;5005593;28;20810;-68
2024/02/20 11:28:55;;;;;;;14.77;6.90;;;10.70;99.90;;;;;;5005189;28;20460;-68
2024/02/20 11:31:27;;;;;;;11.07;5.27;;;10.70;99.90;;;;;;4998858;28;20449;-68
2024/02/20 11:33:54;;;;;;;15.07;5.43;;;10.80;99.90;;;;;;4997576;28;20463;-68
2024/02/20 11:36:20;;;;;;;16.53;6.40;;;10.80;99.90;;;;;;5004673;28;20465;-68
2024/02/20 11:39:00;;;;;;;10.30;4.93;;;10.80;99.90;;;;;;5000785;28;20489;-68
2024/02/20 11:41:27;;;;;;;7.37;6.60;;;10.80;99.90;;;;;;5000969;28;20493;-70
2024/02/20 11:44:04;;;;;;;10.60;6.13;;;10.70;99.90;;;;;;4999818;28;22309;-69
2024/02/20 11:46:32;;;;;;;10.60;5.33;;;10.60;99.90;;;;;;4998807;28;20453;-68
2024/02/20 11:49:00;;;;;;;18.57;6.67;;;10.70;99.90;;;;;;5001838;28;20461;-69
2024/02/20 11:51:27;;;;;;;9.70;3.30;;;10.90;99.90;;;;;;5000714;28;20944;-68
2024/02/20 11:54:07;;;;;;;11.27;5.77;;;11.00;99.90;;;;;;4999823;28;20561;-68
2024/02/20 11:56:34;;;;;;;12.67;4.53;;;10.90;99.90;;;;;;5004360;28;20457;-71
2024/02/20 11:59:01;;;;;;;15.60;5.63;;;10.80;99.90;;;;;;5006822;28;20460;-69
2024/02/20 12:01:29;;;;;;;8.13;4.87;;;10.60;99.90;;;;;;4997076;28;21039;-69
2024/02/20 12:03:56;;;;;;;18.30;6.10;;;10.70;99.90;;;;;;5000011;28;20465;-68
2024/02/20 12:06:27;;;;;;;8.80;5.00;;;10.60;99.90;;;;;;5005173;28;20461;-69
2024/02/20 12:08:55;;;;;;;10.93;4.40;;;10.70;99.90;;;;;;4998310;28;20983;-70
2024/02/20 12:11:26;;;;;;;9.77;5.70;;;10.80;99.90;;;;;;5001278;28;20461;-69
2024/02/20 12:13:54;;;;;;;15.20;6.53;;;10.70;99.90;;;;;;5000559;28;20543;-69
2024/02/20 12:16:22;;;;;;;13.47;6.53;;;10.80;99.90;;;;;;4996248;28;20465;-71
2024/02/20 12:18:50;;;;;;;7.17;5.20;;;10.90;99.90;;;;;;5003210;28;20476;-69
2024/02/20 12:21:22;;;;;;;10.87;5.70;;;10.90;99.90;;;;;;5000210;28;20517;-69
2024/02/20 12:23:53;;;;;;;8.40;5.03;;;10.80;99.90;;;;;;5003699;28;21011;-69
2024/02/20 12:26:20;;;;;;;17.47;7.50;;;10.90;99.90;;;;;;4999647;28;20522;-70
2024/02/20 12:28:49;;;;;;;5.23;3.03;;;11.00;99.90;;;;;;5005499;28;20581;-69
2024/02/20 12:31:20;;;;;;;13.17;6.57;;;10.90;99.90;;;;;;4998564;28;20881;-69
2024/02/20 12:33:46;;;;;;;20.57;4.50;;;10.70;99.90;;;;;;5004923;28;21017;-69
2024/02/20 12:36:13;;;;;;;7.00;4.20;;;10.70;99.90;;;;;;5004094;28;20466;-69
2024/02/20 12:38:40;;;;;;;20.83;6.90;;;10.70;99.90;;;;;;5000111;28;20480;-69
2024/02/20 12:41:07;;;;;;;16.07;6.67;;;10.70;99.90;;;;;;5000167;28;20588;-69
2024/02/20 12:43:34;;;;;;;10.97;5.40;;;10.80;99.90;;;;;;4999518;28;20788;-69
2024/02/20 12:46:02;;;;;;;9.80;5.67;;;10.80;99.90;;;;;;5002344;28;20468;-69
2024/02/20 12:48:29;;;;;;;11.33;6.67;;;10.90;99.90;;;;;;4997861;28;21123;-69
2024/02/20 12:50:58;;;;;;;13.03;5.80;;;10.90;99.90;;;;;;5001320;28;20454;-69